Time;durP1;ratioP1;P1;durP2;ratioP2;P2;SDS_P1;SDS_P2;PMS_P1;PMS_P2;Temp;Humidity;BMP_temperature;BMP_pressure;BME280_temperature;BME280_humidity;BME280_pressure;Samples;Min_cycle;Max_cycle;Signal;HPM_P1;HPM_P2
2021/05/19 00:00:55;;;;;;;1.65;1.00;;;10.80;99.90;;;;;;5095232;28;20203;-39
2021/05/19 00:03:22;;;;;;;1.10;1.00;;;10.80;99.90;;;;;;5095356;28;20246;-39
2021/05/19 00:05:50;;;;;;;1.00;0.88;;;10.80;99.90;;;;;;5095167;28;20290;-38
2021/05/19 00:08:17;;;;;;;0.93;0.90;;;10.80;99.90;;;;;;5095358;28;20293;-39
2021/05/19 00:10:46;;;;;;;1.48;1.00;;;10.70;99.90;;;;;;5095271;28;20207;-38
2021/05/19 00:13:13;;;;;;;2.35;1.15;;;10.70;99.90;;;;;;5094974;28;20238;-39
2021/05/19 00:15:41;;;;;;;2.35;1.10;;;10.70;99.90;;;;;;5095104;28;20215;-41
2021/05/19 00:18:08;;;;;;;0.88;0.82;;;10.70;99.90;;;;;;5095026;28;20749;-38
2021/05/19 00:20:36;;;;;;;2.30;1.45;;;10.70;99.90;;;;;;5095110;28;20290;-36
2021/05/19 00:23:04;;;;;;;1.27;0.82;;;10.70;99.90;;;;;;5094878;28;20234;-37
2021/05/19 00:25:31;;;;;;;1.83;1.40;;;10.70;99.90;;;;;;5094769;28;20242;-37
2021/05/19 00:27:59;;;;;;;1.95;1.25;;;10.70;99.90;;;;;;5094958;28;20242;-37
2021/05/19 00:30:27;;;;;;;4.10;1.50;;;10.70;99.90;;;;;;5094956;28;20635;-37
2021/05/19 00:32:54;;;;;;;1.63;1.27;;;10.60;99.90;;;;;;5094761;28;20210;-37
2021/05/19 00:35:22;;;;;;;2.13;1.52;;;10.60;99.90;;;;;;5094750;28;20283;-39
2021/05/19 00:37:49;;;;;;;1.30;1.17;;;10.60;99.90;;;;;;5094608;28;20574;-38
2021/05/19 00:40:17;;;;;;;3.13;1.35;;;10.60;99.90;;;;;;5095031;28;20206;-37
2021/05/19 00:42:45;;;;;;;2.58;1.42;;;10.60;99.90;;;;;;5094823;28;20242;-39
2021/05/19 00:45:14;;;;;;;2.67;1.45;;;10.50;99.90;;;;;;5094564;28;20723;-37
2021/05/19 00:47:43;;;;;;;3.20;1.75;;;10.50;99.90;;;;;;5094409;28;20670;-36
2021/05/19 00:50:14;;;;;;;1.83;1.40;;;10.50;99.90;;;;;;5094409;28;20213;-36
2021/05/19 00:52:42;;;;;;;1.73;1.40;;;10.40;99.90;;;;;;5094730;28;20293;-39
2021/05/19 00:55:10;;;;;;;3.15;1.50;;;10.40;99.90;;;;;;5094302;28;20657;-37
2021/05/19 00:57:38;;;;;;;1.45;1.15;;;10.40;99.90;;;;;;5094438;28;20265;-36
2021/05/19 01:00:10;;;;;;;1.50;1.33;;;10.30;99.90;;;;;;5094093;28;20749;-36
2021/05/19 01:02:38;;;;;;;3.92;2.30;;;10.30;99.90;;;;;;5094083;28;20232;-38
2021/05/19 01:05:09;;;;;;;3.78;1.60;;;10.30;99.90;;;;;;5094186;28;20628;-37
2021/05/19 01:07:40;;;;;;;1.40;1.30;;;10.30;99.90;;;;;;5094316;28;20271;-38
2021/05/19 01:10:08;;;;;;;1.38;1.10;;;10.30;99.90;;;;;;5094143;28;20239;-38
2021/05/19 01:12:35;;;;;;;2.67;1.02;;;10.20;99.90;;;;;;5093701;28;20332;-38
2021/05/19 01:15:03;;;;;;;0.82;0.80;;;10.20;99.90;;;;;;5093827;28;20244;-39
2021/05/19 01:17:32;;;;;;;2.20;1.23;;;10.10;99.90;;;;;;5093650;28;20203;-38
2021/05/19 01:20:00;;;;;;;2.75;1.13;;;10.10;99.90;;;;;;5094076;28;20211;-38
2021/05/19 01:22:29;;;;;;;2.10;1.10;;;10.00;99.90;;;;;;5093962;28;20235;-38
2021/05/19 01:24:59;;;;;;;3.17;1.52;;;10.00;99.90;;;;;;5093659;28;20281;-38
2021/05/19 01:27:27;;;;;;;1.40;1.30;;;10.00;99.90;;;;;;5093722;28;20256;-38
2021/05/19 01:29:57;;;;;;;3.78;1.67;;;10.10;99.90;;;;;;5093650;28;20260;-38
2021/05/19 01:32:25;;;;;;;2.00;1.50;;;10.10;99.90;;;;;;5093856;28;20299;-39
2021/05/19 01:34:53;;;;;;;2.70;1.30;;;10.00;99.90;;;;;;5093435;28;20222;-38
2021/05/19 01:37:20;;;;;;;3.05;1.52;;;10.00;99.90;;;;;;5093716;28;20625;-38
2021/05/19 01:39:49;;;;;;;2.45;1.75;;;9.90;99.90;;;;;;5093528;28;20234;-38
2021/05/19 01:42:17;;;;;;;2.50;1.50;;;9.90;99.90;;;;;;5093172;28;20224;-39
2021/05/19 01:44:45;;;;;;;1.90;1.50;;;9.90;99.90;;;;;;5093252;28;20248;-38
2021/05/19 01:47:12;;;;;;;11.68;1.88;;;9.90;99.90;;;;;;5093309;28;20312;-39
2021/05/19 01:49:42;;;;;;;1.40;1.30;;;9.90;99.90;;;;;;5093394;28;20249;-38
2021/05/19 01:52:12;;;;;;;1.75;1.40;;;9.90;99.90;;;;;;5093231;28;20256;-38
2021/05/19 01:54:41;;;;;;;4.32;2.15;;;9.90;99.90;;;;;;5092987;28;20222;-38
2021/05/19 01:57:11;;;;;;;2.35;1.75;;;9.90;99.90;;;;;;5093096;28;20309;-38
2021/05/19 01:59:38;;;;;;;2.30;1.67;;;9.90;99.90;;;;;;5093063;28;20669;-38
2021/05/19 02:02:06;;;;;;;2.78;1.73;;;9.90;99.90;;;;;;5093197;28;20209;-38
2021/05/19 02:04:34;;;;;;;2.72;1.63;;;9.90;99.90;;;;;;5093155;28;20602;-38
2021/05/19 02:07:01;;;;;;;1.60;1.50;;;9.90;99.90;;;;;;5092977;28;20264;-38
2021/05/19 02:09:28;;;;;;;1.90;1.52;;;10.00;99.90;;;;;;5092854;28;20701;-38
2021/05/19 02:11:56;;;;;;;1.92;1.30;;;10.00;99.90;;;;;;5093161;28;20218;-38
2021/05/19 02:14:24;;;;;;;1.67;1.58;;;10.00;99.90;;;;;;5092415;28;20321;-38
2021/05/19 02:16:52;;;;;;;2.75;2.05;;;9.90;99.90;;;;;;5092896;28;20290;-38
2021/05/19 02:19:19;;;;;;;2.03;1.60;;;9.90;99.90;;;;;;5092730;28;20275;-37
2021/05/19 02:21:49;;;;;;;2.42;1.80;;;9.90;99.90;;;;;;5092164;28;20245;-38
2021/05/19 02:24:18;;;;;;;2.45;2.10;;;9.90;99.90;;;;;;5092555;28;20318;-38
2021/05/19 02:26:46;;;;;;;1.55;1.35;;;9.90;99.90;;;;;;5092780;28;20313;-38
2021/05/19 02:29:14;;;;;;;3.20;1.70;;;9.90;99.90;;;;;;5092646;28;20242;-38
2021/05/19 02:31:43;;;;;;;5.10;1.73;;;9.90;99.90;;;;;;5092593;28;20304;-38
2021/05/19 02:34:12;;;;;;;1.50;1.40;;;9.90;99.90;;;;;;5092408;28;20293;-38
2021/05/19 02:36:40;;;;;;;1.90;1.67;;;9.90;99.90;;;;;;5092319;28;20242;-38
2021/05/19 02:39:10;;;;;;;1.85;1.75;;;9.90;99.90;;;;;;5092473;28;20305;-37
2021/05/19 02:41:38;;;;;;;3.53;2.45;;;9.90;99.90;;;;;;5092687;28;20268;-38
2021/05/19 02:44:06;;;;;;;2.60;2.33;;;9.90;99.90;;;;;;5092490;28;20297;-38
2021/05/19 02:46:34;;;;;;;2.90;2.35;;;9.90;99.90;;;;;;5092396;28;20210;-38
2021/05/19 02:49:03;;;;;;;3.22;2.40;;;9.90;99.90;;;;;;5092239;28;20340;-38
2021/05/19 02:51:32;;;;;;;2.95;2.67;;;9.90;99.90;;;;;;5092535;28;20298;-38
2021/05/19 02:54:00;;;;;;;3.53;2.40;;;9.90;99.90;;;;;;5092320;28;20230;-39
2021/05/19 02:56:28;;;;;;;3.58;2.63;;;9.90;99.90;;;;;;5092112;28;20641;-38
2021/05/19 02:58:55;;;;;;;3.03;2.45;;;9.90;99.90;;;;;;5092220;28;20216;-38
2021/05/19 03:01:23;;;;;;;2.55;2.35;;;9.80;99.90;;;;;;5092142;28;20242;-38
2021/05/19 03:03:51;;;;;;;2.45;2.25;;;9.80;99.90;;;;;;5091952;28;20302;-38
2021/05/19 03:06:19;;;;;;;3.75;2.45;;;9.70;99.90;;;;;;5092220;28;20234;-38
2021/05/19 03:08:47;;;;;;;3.00;2.65;;;9.70;99.90;;;;;;5092195;28;20202;-37
2021/05/19 03:11:14;;;;;;;4.80;3.03;;;9.70;99.90;;;;;;5091971;28;20207;-38
2021/05/19 03:13:42;;;;;;;3.65;2.45;;;9.70;99.90;;;;;;5091883;28;20321;-37
2021/05/19 03:16:09;;;;;;;4.72;2.80;;;9.60;99.90;;;;;;5091672;28;20669;-38
2021/05/19 03:18:37;;;;;;;4.13;2.90;;;9.60;99.90;;;;;;5091671;28;20245;-38
2021/05/19 03:21:05;;;;;;;4.30;2.65;;;9.60;99.90;;;;;;5092059;28;20206;-41
2021/05/19 03:23:34;;;;;;;2.95;2.45;;;9.60;99.90;;;;;;5092011;28;20557;-38
2021/05/19 03:26:01;;;;;;;3.55;3.03;;;9.70;99.90;;;;;;5091888;28;20293;-38
2021/05/19 03:28:29;;;;;;;5.47;3.13;;;9.70;99.90;;;;;;5091832;28;20728;-39
2021/05/19 03:30:57;;;;;;;2.97;2.78;;;9.70;99.90;;;;;;5091725;28;20230;-38
2021/05/19 03:33:29;;;;;;;2.92;2.70;;;9.80;99.90;;;;;;5092012;28;20215;-38
2021/05/19 03:35:56;;;;;;;4.90;3.65;;;9.80;99.90;;;;;;5095764;28;20280;-38
2021/05/19 03:38:24;;;;;;;3.53;3.10;;;9.80;99.90;;;;;;5095656;28;20360;-38
2021/05/19 03:40:53;;;;;;;4.47;3.60;;;9.90;99.90;;;;;;5095691;28;20211;-38
2021/05/19 03:43:20;;;;;;;4.15;3.50;;;9.90;99.90;;;;;;5095600;28;20301;-38
2021/05/19 03:45:48;;;;;;;4.00;3.65;;;9.90;99.90;;;;;;5095852;28;20203;-38
2021/05/19 03:48:16;;;;;;;3.60;3.30;;;9.90;99.90;;;;;;5095895;28;20207;-38
2021/05/19 03:50:44;;;;;;;5.85;3.33;;;9.90;99.90;;;;;;5095591;28;20657;-38
2021/05/19 03:53:12;;;;;;;4.90;3.33;;;9.90;99.90;;;;;;5095613;28;20302;-38
2021/05/19 03:55:40;;;;;;;5.05;3.55;;;10.00;99.90;;;;;;5095394;28;20697;-38
2021/05/19 03:58:08;;;;;;;6.20;3.80;;;9.90;99.90;;;;;;5095424;28;20645;-38
2021/05/19 04:00:38;;;;;;;5.20;3.60;;;9.90;99.90;;;;;;5095155;28;20766;-38
2021/05/19 04:03:06;;;;;;;3.47;3.17;;;10.00;99.90;;;;;;5095031;28;20668;-38
2021/05/19 04:05:36;;;;;;;5.97;3.58;;;10.00;99.90;;;;;;5094865;28;20199;-38
2021/05/19 04:08:04;;;;;;;3.92;3.47;;;9.90;99.90;;;;;;5094945;28;20253;-39
2021/05/19 04:10:33;;;;;;;6.03;3.50;;;9.90;99.90;;;;;;5095088;28;20211;-38
2021/05/19 04:13:04;;;;;;;4.18;3.78;;;9.80;99.90;;;;;;5095032;28;20314;-38
2021/05/19 04:15:34;;;;;;;3.58;3.00;;;9.70;99.90;;;;;;5095402;28;20371;-38
2021/05/19 04:18:01;;;;;;;4.65;3.38;;;9.60;99.90;;;;;;5094979;28;20245;-39
2021/05/19 04:20:28;;;;;;;4.85;4.45;;;9.60;99.90;;;;;;5094560;28;20298;-38
2021/05/19 04:22:56;;;;;;;4.80;4.18;;;9.60;99.90;;;;;;5094482;28;20211;-39
2021/05/19 04:25:23;;;;;;;6.97;3.70;;;9.50;99.90;;;;;;5094921;28;20282;-39
2021/05/19 04:27:51;;;;;;;6.47;4.90;;;9.60;99.90;;;;;;5094849;28;20211;-41
2021/05/19 04:30:19;;;;;;;3.92;3.63;;;9.60;99.90;;;;;;5094871;28;20278;-38
2021/05/19 04:32:47;;;;;;;7.05;4.18;;;9.60;99.90;;;;;;5094578;28;20305;-37
2021/05/19 04:35:15;;;;;;;7.45;4.60;;;9.60;99.90;;;;;;5094748;28;20225;-38
2021/05/19 04:37:42;;;;;;;6.38;4.65;;;9.60;99.90;;;;;;5094670;28;20292;-37
2021/05/19 04:40:11;;;;;;;4.72;3.80;;;9.70;99.90;;;;;;5094721;28;20675;-37
2021/05/19 04:42:40;;;;;;;6.07;4.32;;;9.60;99.90;;;;;;5094681;28;20661;-40
2021/05/19 04:45:09;;;;;;;6.40;3.92;;;9.60;99.90;;;;;;5094184;28;20553;-38
2021/05/19 04:47:37;;;;;;;4.57;3.30;;;9.70;99.90;;;;;;5094638;28;20207;-37
2021/05/19 04:50:07;;;;;;;4.63;3.40;;;9.80;99.90;;;;;;5094495;28;20210;-39
2021/05/19 04:52:35;;;;;;;6.20;4.07;;;9.80;99.90;;;;;;5094697;28;20575;-38
2021/05/19 04:55:05;;;;;;;6.05;4.30;;;9.80;99.90;;;;;;5094456;28;20331;-38
2021/05/19 04:57:33;;;;;;;4.68;3.80;;;9.90;99.90;;;;;;5094543;28;20314;-38
2021/05/19 05:00:00;;;;;;;5.53;3.60;;;9.90;99.90;;;;;;5094389;28;20664;-39
2021/05/19 05:02:28;;;;;;;4.80;4.03;;;10.00;99.90;;;;;;5094185;28;20242;-41
2021/05/19 05:04:55;;;;;;;5.32;4.00;;;10.00;99.90;;;;;;5094010;28;20567;-40
2021/05/19 05:07:24;;;;;;;4.13;3.72;;;10.10;99.90;;;;;;5093820;28;20301;-39
2021/05/19 05:09:52;;;;;;;4.50;3.72;;;10.10;99.90;;;;;;5094195;28;20257;-37
2021/05/19 05:12:19;;;;;;;6.18;4.35;;;10.20;99.90;;;;;;5093960;28;20248;-38
2021/05/19 05:14:47;;;;;;;5.10;4.30;;;10.20;99.90;;;;;;5094162;28;20617;-37
2021/05/19 05:17:15;;;;;;;4.18;3.80;;;10.30;99.90;;;;;;5094029;28;20249;-39
2021/05/19 05:19:43;;;;;;;5.78;3.88;;;10.30;99.90;;;;;;5094179;28;20206;-39
2021/05/19 05:22:11;;;;;;;5.43;4.15;;;10.40;99.90;;;;;;5093855;28;20661;-38
2021/05/19 05:24:39;;;;;;;8.63;4.20;;;10.40;99.90;;;;;;5093698;28;20210;-38
2021/05/19 05:27:07;;;;;;;5.88;4.80;;;10.50;99.90;;;;;;5093998;28;20256;-41
2021/05/19 05:29:35;;;;;;;5.40;4.80;;;10.60;99.90;;;;;;5093710;28;20264;-38
2021/05/19 05:32:02;;;;;;;4.63;4.22;;;10.70;99.90;;;;;;5093922;28;20306;-40
2021/05/19 05:34:30;;;;;;;5.03;4.63;;;10.70;99.90;;;;;;5093662;28;20245;-38
2021/05/19 05:36:57;;;;;;;4.70;4.30;;;10.80;99.90;;;;;;5093427;28;20227;-38
2021/05/19 05:39:25;;;;;;;9.20;4.50;;;10.80;99.90;;;;;;5093725;28;20206;-38
2021/05/19 05:41:53;;;;;;;5.78;4.35;;;10.90;99.90;;;;;;5093592;28;20264;-37
2021/05/19 05:44:21;;;;;;;4.70;4.30;;;10.80;99.90;;;;;;5093000;28;20250;-38
2021/05/19 05:46:49;;;;;;;5.03;4.53;;;10.80;99.90;;;;;;5093450;28;20202;-38
2021/05/19 05:49:16;;;;;;;5.18;4.60;;;10.80;99.90;;;;;;5093288;28;20221;-39
2021/05/19 05:51:44;;;;;;;5.35;4.82;;;10.80;99.90;;;;;;5093332;28;20268;-39
2021/05/19 05:54:12;;;;;;;4.95;4.55;;;10.90;99.90;;;;;;5093322;28;20290;-39
2021/05/19 05:56:41;;;;;;;5.85;5.20;;;10.90;99.90;;;;;;5092248;28;20313;-38
2021/05/19 05:59:09;;;;;;;6.05;4.78;;;11.00;99.90;;;;;;5093115;28;20211;-40
2021/05/19 06:01:37;;;;;;;5.57;5.07;;;11.10;99.90;;;;;;5093356;28;20217;-38
2021/05/19 06:04:05;;;;;;;5.28;4.85;;;11.10;99.90;;;;;;5093105;28;20229;-38
2021/05/19 06:06:33;;;;;;;5.13;4.65;;;11.20;99.90;;;;;;5092680;28;20206;-38
2021/05/19 06:09:00;;;;;;;6.00;5.32;;;11.20;99.90;;;;;;5092463;28;20630;-38
2021/05/19 06:11:29;;;;;;;5.72;5.20;;;11.20;99.90;;;;;;5092319;28;20206;-39
2021/05/19 06:13:57;;;;;;;5.97;5.38;;;11.20;99.90;;;;;;5092266;28;20246;-38
2021/05/19 06:16:25;;;;;;;5.88;5.25;;;11.30;99.90;;;;;;5092269;28;20249;-38
2021/05/19 06:18:53;;;;;;;8.20;5.70;;;11.30;99.90;;;;;;5092453;28;20203;-38
2021/05/19 06:21:20;;;;;;;6.95;4.85;;;11.40;99.90;;;;;;5092153;28;20313;-43
2021/05/19 06:23:48;;;;;;;5.70;5.20;;;11.50;99.90;;;;;;5092320;28;20207;-39
2021/05/19 06:26:15;;;;;;;6.90;5.35;;;11.60;99.90;;;;;;5092153;28;20202;-40
2021/05/19 06:28:42;;;;;;;5.88;5.20;;;11.70;99.90;;;;;;5092366;28;20211;-38
2021/05/19 06:31:10;;;;;;;5.50;5.07;;;11.70;99.90;;;;;;5092487;28;20253;-40
2021/05/19 06:33:38;;;;;;;5.55;5.05;;;11.70;99.90;;;;;;5092428;28;20297;-40
2021/05/19 06:36:06;;;;;;;6.03;4.78;;;11.70;99.90;;;;;;5091982;28;20226;-39
2021/05/19 06:38:34;;;;;;;5.22;4.78;;;11.70;99.90;;;;;;5092007;28;20661;-40
2021/05/19 06:41:01;;;;;;;7.03;4.78;;;11.70;99.90;;;;;;5091841;28;20294;-39
2021/05/19 06:43:29;;;;;;;5.20;4.80;;;11.60;99.90;;;;;;5092161;28;20210;-41
2021/05/19 06:45:57;;;;;;;5.25;4.70;;;11.50;99.90;;;;;;5091907;28;20260;-40
2021/05/19 06:48:24;;;;;;;5.32;4.85;;;11.50;99.90;;;;;;5092130;28;20211;-40
2021/05/19 06:50:53;;;;;;;5.25;4.75;;;11.50;99.90;;;;;;5091962;28;20207;-39
2021/05/19 06:53:21;;;;;;;4.50;4.10;;;11.60;99.90;;;;;;5092399;28;20231;-39
2021/05/19 06:55:51;;;;;;;5.75;5.35;;;11.60;99.90;;;;;;5092169;28;20227;-41
2021/05/19 06:58:19;;;;;;;5.50;5.00;;;11.60;99.90;;;;;;5092172;28;20275;-40
2021/05/19 07:00:46;;;;;;;5.18;4.78;;;11.70;99.90;;;;;;5091830;28;20736;-38
2021/05/19 07:03:14;;;;;;;5.05;4.63;;;11.70;99.90;;;;;;5091967;28;20314;-38
2021/05/19 07:05:41;;;;;;;5.80;5.28;;;11.80;99.90;;;;;;5092104;28;20245;-39
2021/05/19 07:08:15;;;;;;;5.75;5.15;;;11.90;99.90;;;;;;5091656;28;20213;-38
2021/05/19 07:10:43;;;;;;;6.00;4.85;;;12.00;99.90;;;;;;5091635;28;20238;-38
2021/05/19 07:13:10;;;;;;;4.50;4.13;;;12.00;99.90;;;;;;5091741;28;20234;-37
2021/05/19 07:15:39;;;;;;;5.50;5.00;;;12.10;99.90;;;;;;5091753;28;20256;-37
2021/05/19 07:18:07;;;;;;;5.70;5.20;;;12.10;99.90;;;;;;5092071;28;20256;-39
2021/05/19 07:20:41;;;;;;;6.65;4.43;;;12.10;99.90;;;;;;5092072;28;20218;-39
2021/05/19 07:23:09;;;;;;;5.95;5.35;;;12.10;99.90;;;;;;5091499;28;20584;-38
2021/05/19 07:25:37;;;;;;;5.32;4.90;;;12.20;99.90;;;;;;5091506;28;20260;-39
2021/05/19 07:28:05;;;;;;;6.57;5.25;;;12.20;99.90;;;;;;5091703;28;20256;-40
2021/05/19 07:30:33;;;;;;;5.80;5.30;;;12.20;99.90;;;;;;5091685;28;20238;-38
2021/05/19 07:33:00;;;;;;;5.47;4.97;;;12.20;99.90;;;;;;5091651;28;20209;-38
2021/05/19 07:35:28;;;;;;;5.80;5.05;;;12.10;99.90;;;;;;5091388;28;20673;-38
2021/05/19 07:37:56;;;;;;;6.03;5.53;;;12.10;99.90;;;;;;5091217;28;20799;-37
2021/05/19 07:40:24;;;;;;;5.93;5.43;;;12.20;99.90;;;;;;5091537;28;20290;-37
2021/05/19 07:42:52;;;;;;;7.43;6.75;;;12.30;99.90;;;;;;5091294;28;20242;-37
2021/05/19 07:45:19;;;;;;;7.18;6.57;;;12.40;99.90;;;;;;5091907;28;20215;-38
2021/05/19 07:47:46;;;;;;;6.78;6.18;;;12.50;99.90;;;;;;5091997;28;20195;-37
2021/05/19 07:50:13;;;;;;;8.50;6.35;;;12.70;99.90;;;;;;5091643;28;20285;-40
2021/05/19 07:52:39;;;;;;;6.60;5.90;;;12.90;99.90;;;;;;5091487;28;20627;-38
2021/05/19 07:55:10;;;;;;;7.82;6.80;;;13.10;99.90;;;;;;5091703;28;20238;-37
2021/05/19 07:57:43;;;;;;;6.80;6.20;;;13.00;99.90;;;;;;5091500;28;20218;-37
2021/05/19 08:00:13;;;;;;;8.68;7.50;;;13.00;99.90;;;;;;5091478;28;20199;-37
2021/05/19 08:02:39;;;;;;;7.22;6.57;;;13.10;99.90;;;;;;5091545;28;20199;-37
2021/05/19 08:05:06;;;;;;;7.72;6.75;;;13.10;99.90;;;;;;5091292;28;20207;-38
2021/05/19 08:07:33;;;;;;;8.07;7.25;;;13.20;99.90;;;;;;5091561;28;20667;-38
2021/05/19 08:09:59;;;;;;;7.70;6.88;;;13.20;99.90;;;;;;5091386;28;20234;-36
2021/05/19 08:12:25;;;;;;;9.27;7.28;;;13.20;99.90;;;;;;5091292;28;20233;-39
2021/05/19 08:14:52;;;;;;;6.28;5.78;;;13.30;99.90;;;;;;5091599;28;20288;-38
2021/05/19 08:17:19;;;;;;;6.70;6.10;;;13.40;99.90;;;;;;5091551;28;20237;-38
2021/05/19 08:19:46;;;;;;;6.63;6.00;;;13.40;99.90;;;;;;5091900;28;20203;-38
2021/05/19 08:22:13;;;;;;;7.72;7.10;;;13.50;99.90;;;;;;5095261;28;20640;-39
2021/05/19 08:24:42;;;;;;;7.13;6.53;;;13.50;99.90;;;;;;5095073;28;20210;-38
2021/05/19 08:27:10;;;;;;;6.72;6.13;;;13.50;99.90;;;;;;5095029;28;20526;-37
2021/05/19 08:29:37;;;;;;;8.13;7.38;;;13.60;99.90;;;;;;5095115;28;20210;-37
2021/05/19 08:32:06;;;;;;;7.25;6.65;;;13.80;99.90;;;;;;5094910;28;20266;-41
2021/05/19 08:34:35;;;;;;;6.20;5.80;;;14.10;99.90;;;;;;5094875;28;20665;-41
2021/05/19 08:37:03;;;;;;;6.63;5.97;;;14.30;99.90;;;;;;5094747;28;20309;-39
2021/05/19 08:39:31;;;;;;;7.20;6.47;;;14.60;99.60;;;;;;5094883;28;20747;-38
2021/05/19 08:41:58;;;;;;;6.40;5.80;;;14.80;99.20;;;;;;5094890;28;20249;-38
2021/05/19 08:44:25;;;;;;;5.90;5.30;;;14.90;98.90;;;;;;5094826;28;20241;-38
2021/05/19 08:46:56;;;;;;;6.05;4.78;;;15.00;98.80;;;;;;5094845;28;20241;-38
2021/05/19 08:49:25;;;;;;;5.80;5.25;;;14.80;98.80;;;;;;5094755;28;20661;-38
2021/05/19 08:51:55;;;;;;;8.55;7.35;;;14.40;98.60;;;;;;5094524;28;20263;-38
2021/05/19 08:54:23;;;;;;;5.85;5.35;;;14.00;99.20;;;;;;5094637;28;20298;-39
2021/05/19 08:56:52;;;;;;;6.85;6.20;;;13.70;99.90;;;;;;5094558;28;20685;-41
2021/05/19 08:59:20;;;;;;;6.10;5.60;;;13.20;99.90;;;;;;5094499;28;20203;-40
2021/05/19 09:01:49;;;;;;;9.15;6.35;;;12.80;99.90;;;;;;5094437;28;20214;-40
2021/05/19 09:04:19;;;;;;;8.07;7.28;;;12.60;99.90;;;;;;5094284;28;20725;-43
2021/05/19 09:06:53;;;;;;;8.10;7.35;;;12.60;99.90;;;;;;5094568;28;20293;-43
2021/05/19 09:09:23;;;;;;;7.63;7.05;;;12.70;99.90;;;;;;5094286;28;20240;-40
2021/05/19 09:12:02;;;;;;;6.93;6.18;;;12.80;99.90;;;;;;5094145;28;20252;-41
2021/05/19 09:14:32;;;;;;;8.55;7.38;;;13.00;99.90;;;;;;5094064;28;20206;-39
2021/05/19 09:17:16;;;;;;;7.97;7.30;;;13.30;99.90;;;;;;5094209;28;20299;-40
2021/05/19 09:19:45;;;;;;;7.15;6.65;;;13.60;99.90;;;;;;5094219;28;20211;-41
2021/05/19 09:22:21;;;;;;;8.02;7.22;;;13.90;99.90;;;;;;5094045;28;20251;-42
2021/05/19 09:24:50;;;;;;;9.27;7.00;;;14.10;99.90;;;;;;5094037;28;20249;-41
2021/05/19 09:27:18;;;;;;;8.07;7.32;;;14.10;99.90;;;;;;5093895;28;20210;-39
2021/05/19 09:29:47;;;;;;;8.18;7.07;;;14.10;99.90;;;;;;5094211;28;20556;-39
2021/05/19 09:32:17;;;;;;;7.70;6.95;;;14.20;99.90;;;;;;5093898;28;20302;-40
2021/05/19 09:34:46;;;;;;;7.03;6.43;;;14.20;99.90;;;;;;5093810;28;20206;-40
2021/05/19 09:37:19;;;;;;;8.00;7.10;;;14.20;99.90;;;;;;5093441;28;20321;-41
2021/05/19 09:39:50;;;;;;;8.63;6.60;;;14.20;99.90;;;;;;5093589;28;20305;-40
2021/05/19 09:42:19;;;;;;;7.03;6.43;;;14.20;99.90;;;;;;5093589;28;20297;-38
2021/05/19 09:44:48;;;;;;;10.15;8.00;;;14.20;99.90;;;;;;5093730;28;20262;-38
2021/05/19 09:47:38;;;;;;;7.28;6.78;;;14.50;99.80;;;;;;5093597;28;20202;-40
2021/05/19 09:50:07;;;;;;;6.55;5.97;;;14.90;99.30;;;;;;5093526;28;20748;-37
2021/05/19 09:52:36;;;;;;;7.20;6.60;;;15.40;98.60;;;;;;5093972;28;20242;-37
2021/05/19 09:55:13;;;;;;;6.80;6.28;;;15.60;98.20;;;;;;5093509;28;20203;-37
2021/05/19 09:57:49;;;;;;;5.65;5.15;;;15.40;97.20;;;;;;5093304;28;20234;-38
2021/05/19 10:00:22;;;;;;;6.30;4.85;;;15.10;98.40;;;;;;5093358;28;20301;-37
2021/05/19 10:02:50;;;;;;;5.63;5.13;;;15.00;98.10;;;;;;5093251;28;20806;-37
2021/05/19 10:05:21;;;;;;;6.18;5.13;;;14.80;98.40;;;;;;5093260;28;20268;-37
2021/05/19 10:07:50;;;;;;;5.70;5.30;;;14.60;99.00;;;;;;5093158;28;20202;-40
2021/05/19 10:10:17;;;;;;;6.18;5.68;;;14.30;99.20;;;;;;5093110;28;20619;-43
2021/05/19 10:12:47;;;;;;;6.47;5.65;;;14.00;99.30;;;;;;5092911;28;20270;-40
2021/05/19 10:15:19;;;;;;;7.45;6.72;;;13.90;99.70;;;;;;5093342;28;20511;-40
2021/05/19 10:17:49;;;;;;;6.85;6.30;;;13.80;99.90;;;;;;5093108;28;20304;-42
2021/05/19 10:20:21;;;;;;;8.80;6.60;;;13.80;99.80;;;;;;5093206;28;20211;-40
2021/05/19 10:22:49;;;;;;;6.70;6.20;;;13.90;99.80;;;;;;5092886;28;20608;-40
2021/05/19 10:25:36;;;;;;;8.13;7.05;;;14.00;99.60;;;;;;5092807;28;20695;-40
2021/05/19 10:28:05;;;;;;;7.65;7.03;;;14.20;99.40;;;;;;5093156;28;20249;-41
2021/05/19 10:30:38;;;;;;;7.75;7.05;;;14.40;98.80;;;;;;5092582;28;20264;-41
2021/05/19 10:33:07;;;;;;;7.15;6.63;;;14.70;97.80;;;;;;5092651;28;20620;-39
2021/05/19 10:35:36;;;;;;;7.72;7.03;;;14.90;97.40;;;;;;5092472;28;20260;-40
2021/05/19 10:38:19;;;;;;;6.95;6.40;;;15.20;97.00;;;;;;5092282;28;20279;-40
2021/05/19 10:40:52;;;;;;;6.68;5.78;;;15.60;96.30;;;;;;5092440;28;20734;-40
2021/05/19 10:43:21;;;;;;;6.88;6.28;;;15.90;95.60;;;;;;5092468;28;20207;-41
2021/05/19 10:45:52;;;;;;;6.10;5.50;;;16.10;95.40;;;;;;5091928;28;20573;-39
2021/05/19 10:48:30;;;;;;;5.97;5.57;;;16.20;95.00;;;;;;5092388;28;20706;-42
2021/05/19 10:51:03;;;;;;;6.72;5.38;;;16.20;94.00;;;;;;5092466;28;20218;-40
2021/05/19 10:59:15;;;;;;;1.73;1.63;;;14.90;93.00;;;;;;5092360;28;20210;-40
2021/05/19 11:01:57;;;;;;;2.15;1.60;;;14.40;93.80;;;;;;5092269;28;20571;-40
2021/05/19 11:04:26;;;;;;;1.52;1.42;;;14.10;92.80;;;;;;5091888;28;20206;-41
2021/05/19 11:07:09;;;;;;;2.03;1.30;;;13.90;93.70;;;;;;5092063;28;20271;-39
2021/05/19 11:09:41;;;;;;;1.05;1.00;;;13.80;93.40;;;;;;5092173;28;20215;-39
2021/05/19 11:12:49;;;;;;;1.15;1.00;;;13.90;93.60;;;;;;5091810;28;20207;-41
2021/05/19 11:16:05;;;;;;;0.93;0.93;;;14.10;93.30;;;;;;5091900;28;20744;-40
2021/05/19 11:19:00;;;;;;;0.93;0.90;;;14.50;92.50;;;;;;5092044;28;20258;-40
2021/05/19 11:21:29;;;;;;;1.10;1.00;;;14.90;91.40;;;;;;5091845;28;20633;-40
2021/05/19 11:24:08;;;;;;;0.88;0.88;;;15.10;90.70;;;;;;5091647;28;20532;-40
2021/05/19 11:26:38;;;;;;;1.00;0.82;;;15.40;89.70;;;;;;5091803;28;20206;-42
2021/05/19 11:29:07;;;;;;;1.00;1.00;;;15.60;87.80;;;;;;5091775;28;20237;-40
2021/05/19 11:31:39;;;;;;;2.00;1.80;;;15.80;87.00;;;;;;5091855;28;20210;-40
2021/05/19 11:34:07;;;;;;;3.95;1.77;;;16.00;87.30;;;;;;5091809;28;20238;-40
2021/05/19 11:36:39;;;;;;;2.22;2.03;;;16.10;86.80;;;;;;5091969;28;20234;-40
2021/05/19 11:39:31;;;;;;;3.00;2.05;;;16.20;86.80;;;;;;5091701;28;20227;-40
2021/05/19 11:42:18;;;;;;;3.05;2.83;;;16.20;86.50;;;;;;5091607;28;20207;-40
2021/05/19 11:44:49;;;;;;;4.88;4.47;;;16.00;87.10;;;;;;5091575;28;20211;-40
2021/05/19 11:47:22;;;;;;;4.90;4.40;;;15.80;89.70;;;;;;5091868;28;20297;-39
2021/05/19 11:50:05;;;;;;;5.47;4.97;;;15.50;91.10;;;;;;5091440;28;20207;-40
2021/05/19 11:52:40;;;;;;;3.83;3.50;;;15.30;91.70;;;;;;5091558;28;20301;-40
2021/05/19 11:55:30;;;;;;;3.92;3.25;;;15.10;92.00;;;;;;5092515;28;20260;-39
2021/05/19 11:58:14;;;;;;;3.50;3.20;;;14.90;92.20;;;;;;5095320;28;20226;-39
2021/05/19 12:00:45;;;;;;;4.88;3.60;;;14.50;92.60;;;;;;5095360;28;20202;-39
2021/05/19 12:03:14;;;;;;;6.57;5.07;;;14.10;94.40;;;;;;5095420;28;20241;-39
2021/05/19 12:05:48;;;;;;;5.57;5.07;;;13.70;95.80;;;;;;5095258;28;20214;-39
2021/05/19 12:08:20;;;;;;;6.63;6.03;;;13.30;98.00;;;;;;5095481;28;20202;-39
2021/05/19 12:11:00;;;;;;;7.30;5.95;;;13.00;98.60;;;;;;5095369;28;20237;-39
2021/05/19 12:13:29;;;;;;;6.55;4.60;;;12.90;99.30;;;;;;5095097;28;20468;-39
2021/05/19 12:15:57;;;;;;;4.93;4.53;;;13.00;99.20;;;;;;5094946;28;20306;-39
2021/05/19 12:18:24;;;;;;;5.95;5.32;;;13.20;99.30;;;;;;5095170;28;20284;-40
2021/05/19 12:20:52;;;;;;;6.03;5.47;;;13.60;98.90;;;;;;5095106;28;20293;-40
2021/05/19 12:23:20;;;;;;;6.07;5.57;;;13.90;98.50;;;;;;5094317;28;20814;-39
2021/05/19 12:25:48;;;;;;;6.72;4.88;;;14.30;98.80;;;;;;5094570;28;20669;-39
2021/05/19 12:28:23;;;;;;;9.63;5.03;;;14.70;98.40;;;;;;5094752;28;20290;-39
2021/05/19 12:30:53;;;;;;;5.68;3.72;;;15.10;97.90;;;;;;5094488;28;20241;-39
2021/05/19 12:33:23;;;;;;;4.45;3.67;;;15.40;97.40;;;;;;5094836;28;20229;-40
2021/05/19 12:35:51;;;;;;;4.07;3.22;;;15.60;96.90;;;;;;5094661;28;20254;-40
2021/05/19 12:38:24;;;;;;;3.50;3.20;;;15.90;96.30;;;;;;5094609;28;20684;-40
2021/05/19 12:40:54;;;;;;;3.42;3.13;;;16.00;95.90;;;;;;5094510;28;20218;-40
2021/05/19 12:43:24;;;;;;;2.90;2.70;;;16.00;95.70;;;;;;5094886;28;20653;-40
2021/05/19 12:45:54;;;;;;;2.70;2.50;;;16.00;95.50;;;;;;5094723;28;20252;-40
2021/05/19 12:48:23;;;;;;;3.53;3.13;;;16.00;95.10;;;;;;5094667;28;20285;-40
2021/05/19 12:50:53;;;;;;;2.78;2.58;;;16.00;95.10;;;;;;5094524;28;20634;-40
2021/05/19 12:53:36;;;;;;;2.53;2.33;;;16.10;95.10;;;;;;5094337;28;20238;-40
2021/05/19 12:56:05;;;;;;;3.50;2.13;;;16.20;95.30;;;;;;5094301;28;20210;-40
2021/05/19 12:58:50;;;;;;;3.70;2.80;;;16.40;94.80;;;;;;5094466;28;20261;-43
2021/05/19 13:01:18;;;;;;;2.15;1.70;;;16.80;93.70;;;;;;5094310;28;20665;-40
2021/05/19 13:03:47;;;;;;;1.90;1.80;;;16.80;93.90;;;;;;5094188;28;20229;-40
2021/05/19 13:06:15;;;;;;;2.15;1.98;;;16.90;93.10;;;;;;5094149;28;20268;-40
2021/05/19 13:08:55;;;;;;;2.80;1.77;;;16.90;93.00;;;;;;5094264;28;20249;-40